createdAt,value
2018-08-13T00:00:37.716Z,2.30
2018-08-13T00:03:05.468Z,2.50
2018-08-13T00:05:32.978Z,2.27
2018-08-13T00:08:00.473Z,2.17
2018-08-13T00:10:27.998Z,2.70
2018-08-13T00:12:55.734Z,3.00
2018-08-13T00:15:23.239Z,2.60
2018-08-13T00:17:50.732Z,2.97
2018-08-13T00:20:18.589Z,2.63
2018-08-13T00:22:46.077Z,2.87
2018-08-13T00:25:14.268Z,3.13
2018-08-13T00:27:41.757Z,2.80
2018-08-13T00:30:09.261Z,3.00
2018-08-13T00:32:36.918Z,2.73
2018-08-13T00:35:04.420Z,3.37
2018-08-13T00:37:31.923Z,2.83
2018-08-13T00:39:59.449Z,3.00
2018-08-13T00:42:26.967Z,2.30
2018-08-13T00:44:54.466Z,2.60
2018-08-13T00:47:21.961Z,2.80
2018-08-13T00:49:49.479Z,2.90
2018-08-13T00:52:17.122Z,2.93
2018-08-13T00:54:44.632Z,3.03
2018-08-13T00:57:12.525Z,2.80
2018-08-13T00:59:40.038Z,2.80
2018-08-13T01:02:07.547Z,2.80
2018-08-13T01:04:35.065Z,2.90
2018-08-13T01:07:02.559Z,3.43
2018-08-13T01:09:30.050Z,3.07
2018-08-13T01:11:57.562Z,2.90
2018-08-13T01:14:25.113Z,3.30
2018-08-13T01:16:52.598Z,4.93
2018-08-13T01:19:20.102Z,5.17
2018-08-13T01:21:47.591Z,2.90
2018-08-13T01:24:15.107Z,3.67
2018-08-13T01:26:42.686Z,2.87
2018-08-13T01:29:10.179Z,2.90
2018-08-13T01:31:37.884Z,3.50
2018-08-13T01:34:05.464Z,2.83
2018-08-13T01:36:32.978Z,2.70
2018-08-13T01:39:01.255Z,3.00
2018-08-13T01:41:29.536Z,2.90
2018-08-13T01:43:57.797Z,3.10
2018-08-13T01:46:25.453Z,3.30
2018-08-13T01:48:52.938Z,2.90
2018-08-13T01:51:20.445Z,2.60
2018-08-13T01:53:48.004Z,2.75
2018-08-13T01:56:15.774Z,3.27
2018-08-13T01:58:43.253Z,2.57
2018-08-13T02:01:10.878Z,2.47
2018-08-13T02:03:38.361Z,3.40
2018-08-13T02:06:05.868Z,3.10
2018-08-13T02:08:33.359Z,2.90
2018-08-13T02:11:00.871Z,3.30
2018-08-13T02:13:28.358Z,2.93
2018-08-13T02:15:55.867Z,3.00
2018-08-13T02:18:23.365Z,3.27
2018-08-13T02:20:50.867Z,2.93
2018-08-13T02:23:18.366Z,2.60
2018-08-13T02:25:45.889Z,2.90
2018-08-13T02:28:13.762Z,3.07
2018-08-13T02:30:41.266Z,2.90
2018-08-13T02:33:08.751Z,3.37
2018-08-13T02:35:36.438Z,3.07
2018-08-13T02:38:03.934Z,2.93
2018-08-13T02:40:31.450Z,3.13
2018-08-13T02:42:58.929Z,3.50
2018-08-13T02:45:26.500Z,3.90
2018-08-13T02:47:53.999Z,3.87
2018-08-13T02:50:21.500Z,3.40
2018-08-13T02:52:49.015Z,3.07
2018-08-13T02:55:17.447Z,3.50
2018-08-13T02:57:45.027Z,3.40
2018-08-13T03:00:13.327Z,3.42
2018-08-13T03:02:40.814Z,3.30
2018-08-13T03:05:15.044Z,3.20
2018-08-13T03:07:42.539Z,3.77
2018-08-13T03:10:10.041Z,3.57
2018-08-13T03:12:37.570Z,3.20
2018-08-13T03:15:05.080Z,3.40
2018-08-13T03:17:32.596Z,3.60
2018-08-13T03:20:00.086Z,3.50
2018-08-13T03:22:28.364Z,3.40
2018-08-13T03:24:55.890Z,3.80
2018-08-13T03:27:23.407Z,3.50
2018-08-13T03:29:50.899Z,3.23
2018-08-13T03:32:18.425Z,3.60
2018-08-13T03:34:45.928Z,3.47
2018-08-13T03:37:13.817Z,3.40
2018-08-13T03:39:41.326Z,3.60
2018-08-13T03:42:08.864Z,3.00
2018-08-13T03:44:36.441Z,3.03
2018-08-13T03:47:03.961Z,3.47
2018-08-13T03:49:31.477Z,3.20
2018-08-13T03:51:59.001Z,2.90
2018-08-13T03:54:26.978Z,3.30
2018-08-13T03:56:54.479Z,3.23
2018-08-13T03:59:21.985Z,3.67
2018-08-13T04:01:49.493Z,3.23
2018-08-13T04:04:16.969Z,3.10
2018-08-13T04:06:45.450Z,3.40
2018-08-13T04:09:12.938Z,3.35
2018-08-13T04:11:40.437Z,3.17
2018-08-13T04:14:08.223Z,2.90
2018-08-13T04:16:35.882Z,3.83
2018-08-13T04:19:04.157Z,3.57
2018-08-13T04:21:31.686Z,4.17
2018-08-13T04:23:59.173Z,4.00
2018-08-13T04:26:27.045Z,4.07
2018-08-13T04:28:54.531Z,3.80
2018-08-13T04:31:22.031Z,3.37
2018-08-13T04:33:49.514Z,3.80
2018-08-13T04:36:17.785Z,3.50
2018-08-13T04:38:45.530Z,3.20
2018-08-13T04:41:13.017Z,3.37
2018-08-13T04:43:40.574Z,3.57
2018-08-13T04:46:08.493Z,3.93
2018-08-13T04:48:35.999Z,3.60
2018-08-13T04:51:04.274Z,4.50
2018-08-13T04:53:31.794Z,3.30
2018-08-13T04:55:59.758Z,3.60
2018-08-13T04:58:27.250Z,3.40
2018-08-13T05:00:54.858Z,3.77
2018-08-13T05:03:22.502Z,3.10
2018-08-13T05:05:50.007Z,3.70
2018-08-13T05:08:17.534Z,3.27
2018-08-13T05:10:45.075Z,3.47
2018-08-13T05:13:12.581Z,3.70
2018-08-13T05:15:40.087Z,3.40
2018-08-13T05:18:07.986Z,3.73
2018-08-13T05:20:35.762Z,2.87
2018-08-13T05:23:03.282Z,3.27
2018-08-13T05:25:30.785Z,4.50
2018-08-13T05:27:58.280Z,3.67
2018-08-13T05:30:25.984Z,3.60
2018-08-13T05:32:53.473Z,3.13
2018-08-13T05:35:20.969Z,3.40
2018-08-13T05:37:48.477Z,3.80
2018-08-13T05:40:15.960Z,2.90
2018-08-13T05:42:43.475Z,3.90
2018-08-13T05:45:11.641Z,3.33
2018-08-13T05:47:39.154Z,3.13
2018-08-13T05:50:07.801Z,5.10
2018-08-13T05:52:35.475Z,4.30
2018-08-13T05:55:02.990Z,3.90
2018-08-13T05:57:30.510Z,3.50
2018-08-13T05:59:58.027Z,3.70
2018-08-13T06:02:25.802Z,3.80
2018-08-13T06:04:53.285Z,3.60
2018-08-13T06:07:21.775Z,4.60
2018-08-13T06:09:49.270Z,4.50
2018-08-13T06:12:16.945Z,5.07
2018-08-13T06:14:44.453Z,5.33
2018-08-13T06:17:11.964Z,5.00
2018-08-13T06:19:39.461Z,4.87
2018-08-13T06:22:07.119Z,3.93
2018-08-13T06:24:34.605Z,5.50
2018-08-13T06:27:02.139Z,4.10
2018-08-13T06:29:29.630Z,4.00
2018-08-13T06:31:57.908Z,4.07
2018-08-13T06:34:25.493Z,5.17
2018-08-13T06:36:52.996Z,5.03
2018-08-13T06:39:20.543Z,5.00
2018-08-13T06:41:48.038Z,4.97
2018-08-13T06:44:15.797Z,7.40
2018-08-13T06:46:43.327Z,14.37
2018-08-13T06:49:10.844Z,8.00
2018-08-13T06:51:38.356Z,4.83
2018-08-13T06:54:05.872Z,4.93
2018-08-13T06:56:33.433Z,4.33
2018-08-13T06:59:00.942Z,4.80
2018-08-13T07:01:28.610Z,5.13
2018-08-13T07:03:56.306Z,4.77
2018-08-13T07:06:23.822Z,4.57
2018-08-13T07:08:51.343Z,4.80
2018-08-13T07:11:19.255Z,4.00
2018-08-13T07:14:15.452Z,5.00
2018-08-13T07:16:42.975Z,4.20
2018-08-13T07:19:10.490Z,4.30
2018-08-13T07:21:37.976Z,3.97
2018-08-13T07:24:05.920Z,4.20
2018-08-13T07:26:35.085Z,4.93
2018-08-13T07:29:02.592Z,4.33
2018-08-13T07:31:32.587Z,5.30
2018-08-13T07:34:00.999Z,4.90
2018-08-13T07:36:28.507Z,4.80
2018-08-13T07:38:56.019Z,6.10
2018-08-13T07:41:23.509Z,4.87
2018-08-13T07:43:51.011Z,4.80
2018-08-13T07:46:18.525Z,5.00
2018-08-13T07:48:46.046Z,5.53
2018-08-13T07:51:13.630Z,4.87
2018-08-13T07:53:41.182Z,6.30
2018-08-13T07:56:09.018Z,6.00
2018-08-13T07:58:36.642Z,5.60
2018-08-13T08:01:04.137Z,5.53
2018-08-13T08:03:31.743Z,5.40
2018-08-13T08:05:59.241Z,5.93
2018-08-13T08:08:26.850Z,6.10
2018-08-13T08:10:54.336Z,6.30
2018-08-13T08:13:21.909Z,6.18
2018-08-13T08:15:49.395Z,6.37
2018-08-13T08:18:17.043Z,6.50
2018-08-13T08:20:44.544Z,5.43
2018-08-13T08:23:12.054Z,5.80
2018-08-13T08:25:39.537Z,5.80
2018-08-13T08:28:07.231Z,6.90
2018-08-13T08:30:34.873Z,6.90
2018-08-13T08:33:02.517Z,7.93
2018-08-13T08:35:30.032Z,6.87
2018-08-13T08:37:57.589Z,7.40
2018-08-13T08:40:25.158Z,6.87
2018-08-13T08:42:52.634Z,7.73
2018-08-13T08:45:20.153Z,7.80
2018-08-13T08:47:47.642Z,7.73
2018-08-13T08:50:15.258Z,7.30
2018-08-13T08:52:42.761Z,7.23
2018-08-13T08:55:11.008Z,8.37
2018-08-13T08:57:38.518Z,6.87
2018-08-13T09:00:06.981Z,7.27
2018-08-13T09:02:34.481Z,8.20
2018-08-13T09:05:01.986Z,7.67
2018-08-13T09:07:29.496Z,6.57
2018-08-13T09:09:57.047Z,7.77
2018-08-13T09:12:24.551Z,7.60
2018-08-13T09:14:52.845Z,7.97
2018-08-13T09:17:20.334Z,8.30
2018-08-13T09:19:51.398Z,7.30
2018-08-13T09:22:21.462Z,7.50
2018-08-13T09:24:51.574Z,6.80
2018-08-13T09:27:23.250Z,8.40
2018-08-13T09:29:58.357Z,7.50
2018-08-13T09:32:27.718Z,7.73
2018-08-13T09:34:55.484Z,7.70
2018-08-13T09:37:22.991Z,7.30
2018-08-13T09:39:50.535Z,8.50
2018-08-13T09:42:18.044Z,8.10
2018-08-13T09:44:45.636Z,8.03
2018-08-13T09:47:13.150Z,8.40
2018-08-13T09:49:40.651Z,7.43
2018-08-13T09:52:08.365Z,6.97
2018-08-13T09:54:35.846Z,7.33
2018-08-13T09:57:03.366Z,8.57
2018-08-13T09:59:31.496Z,7.45
2018-08-13T10:02:00.143Z,8.38
2018-08-13T10:04:28.018Z,8.80
2018-08-13T10:06:56.209Z,6.87
2018-08-13T10:09:24.397Z,7.33
2018-08-13T10:11:52.619Z,7.50
2018-08-13T10:14:20.128Z,7.60
2018-08-13T10:16:47.670Z,6.50
2018-08-13T10:19:15.243Z,7.20
2018-08-13T10:21:42.754Z,7.13
2018-08-13T10:24:10.250Z,8.00
2018-08-13T10:26:38.469Z,6.80
2018-08-13T10:29:07.214Z,7.47
2018-08-13T10:31:34.843Z,7.20
2018-08-13T10:34:02.457Z,7.57
2018-08-13T10:36:29.989Z,8.30
2018-08-13T10:38:57.474Z,6.83
2018-08-13T10:41:25.028Z,7.33
2018-08-13T10:43:52.535Z,7.53
2018-08-13T10:46:20.049Z,10.50
2018-08-13T10:48:47.549Z,34.90
2018-08-13T10:51:15.069Z,10.13
2018-08-13T10:53:42.570Z,8.47
2018-08-13T10:56:10.085Z,7.60
2018-08-13T10:58:37.586Z,6.90
2018-08-13T11:01:05.122Z,8.30
2018-08-13T11:03:32.595Z,7.23
2018-08-13T11:06:00.192Z,7.40
2018-08-13T11:08:27.698Z,7.10
2018-08-13T11:10:55.451Z,7.20
2018-08-13T11:13:23.907Z,8.60
2018-08-13T11:15:51.422Z,7.37
2018-08-13T11:18:18.916Z,7.60
2018-08-13T11:20:46.465Z,7.63
2018-08-13T11:23:13.962Z,7.03
2018-08-13T11:25:41.485Z,6.40
2018-08-13T11:28:09.128Z,6.37
2018-08-13T11:30:36.756Z,7.43
2018-08-13T11:33:04.254Z,7.27
2018-08-13T11:35:31.778Z,6.10
2018-08-13T11:37:59.337Z,6.30
2018-08-13T11:40:26.934Z,5.20
2018-08-13T11:42:54.435Z,5.20
2018-08-13T11:45:21.915Z,5.43
2018-08-13T11:47:49.443Z,5.40
2018-08-13T11:50:16.980Z,5.43
2018-08-13T11:52:45.095Z,5.13
2018-08-13T11:55:12.593Z,5.27
2018-08-13T11:57:40.104Z,5.40
2018-08-13T12:00:07.602Z,4.83
2018-08-13T12:02:35.162Z,5.47
2018-08-13T12:05:02.661Z,4.83
2018-08-13T12:07:30.257Z,5.67
2018-08-13T12:09:57.769Z,5.30
2018-08-13T12:12:25.475Z,5.40
2018-08-13T12:14:52.962Z,5.20
2018-08-13T12:17:20.503Z,4.93
2018-08-13T12:19:48.010Z,4.50
2018-08-13T12:22:15.799Z,4.70
2018-08-13T12:24:43.298Z,3.87
2018-08-13T12:27:10.821Z,4.60
2018-08-13T12:29:38.330Z,4.57
2018-08-13T12:32:05.870Z,4.67
2018-08-13T12:34:33.354Z,5.20
2018-08-13T12:37:00.865Z,5.10
2018-08-13T12:39:28.359Z,7.27
2018-08-13T12:41:55.909Z,4.80
2018-08-13T12:44:23.392Z,5.50
2018-08-13T12:46:51.385Z,5.63
2018-08-13T12:49:18.891Z,6.07
2018-08-13T12:51:46.510Z,5.82
2018-08-13T12:54:14.002Z,4.97
2018-08-13T12:56:41.510Z,5.50
2018-08-13T12:59:09.774Z,4.90
2018-08-13T13:01:37.293Z,5.20
2018-08-13T13:04:04.826Z,5.27
2018-08-13T13:06:32.321Z,5.20
2018-08-13T13:08:59.905Z,5.30
2018-08-13T13:11:27.362Z,4.50
2018-08-13T13:13:54.985Z,5.07
2018-08-13T13:16:22.489Z,4.93
2018-08-13T13:18:51.687Z,4.17
2018-08-13T13:21:19.210Z,4.63
2018-08-13T13:23:46.839Z,5.83
2018-08-13T13:26:14.346Z,3.80
2018-08-13T13:28:41.850Z,3.63
2018-08-13T13:31:09.329Z,3.40
2018-08-13T13:33:36.984Z,4.30
2018-08-13T13:36:04.475Z,3.47
2018-08-13T13:38:31.992Z,3.53
2018-08-13T13:40:59.478Z,2.97
2018-08-13T13:43:27.055Z,3.70
2018-08-13T13:45:54.550Z,3.70
2018-08-13T13:48:22.085Z,2.87
2018-08-13T13:50:50.329Z,3.70
2018-08-13T13:53:17.846Z,3.20
2018-08-13T13:55:45.474Z,2.83
2018-08-13T13:58:13.010Z,2.93
2018-08-13T14:00:40.491Z,2.80
2018-08-13T14:03:08.293Z,3.00
2018-08-13T14:05:35.822Z,2.60
2018-08-13T14:08:04.098Z,3.20
2018-08-13T14:10:31.615Z,3.00
2018-08-13T14:12:59.115Z,2.37
2018-08-13T14:15:26.779Z,2.33
2018-08-13T14:17:54.353Z,2.23
2018-08-13T14:20:21.856Z,2.13
2018-08-13T14:22:49.464Z,2.60
2018-08-13T14:25:16.954Z,2.28
2018-08-13T14:27:44.475Z,2.50
2018-08-13T14:30:12.770Z,2.23
2018-08-13T14:32:40.288Z,2.50
2018-08-13T14:35:08.324Z,2.50
2018-08-13T14:37:35.865Z,2.40
2018-08-13T14:40:03.373Z,2.80
2018-08-13T14:42:30.883Z,2.40
2018-08-13T14:44:58.394Z,2.90
2018-08-13T14:47:25.903Z,2.50
2018-08-13T14:49:53.412Z,2.77
2018-08-13T14:52:20.920Z,2.50
2018-08-13T14:54:48.431Z,3.17
2018-08-13T14:57:15.923Z,3.10
2018-08-13T14:59:43.439Z,2.80
2018-08-13T15:02:10.951Z,3.40
2018-08-13T15:04:38.482Z,3.33
2018-08-13T15:07:05.994Z,2.80
2018-08-13T15:09:33.511Z,3.33
2018-08-13T15:12:01.006Z,3.30
2018-08-13T15:14:28.512Z,3.40
2018-08-13T15:16:56.007Z,3.60
2018-08-13T15:19:23.540Z,2.97
2018-08-13T15:21:51.044Z,2.90
2018-08-13T15:24:18.546Z,3.00
2018-08-13T15:26:46.039Z,2.53
2018-08-13T15:29:13.555Z,2.87
2018-08-13T15:31:41.042Z,2.40
2018-08-13T15:34:08.775Z,2.90
2018-08-13T15:36:36.474Z,2.63
2018-08-13T15:39:04.462Z,2.50
2018-08-13T15:41:31.955Z,2.90
2018-08-13T15:43:59.462Z,3.00
2018-08-13T15:46:27.013Z,2.87
2018-08-13T15:48:54.520Z,2.60
2018-08-13T15:51:22.009Z,3.00
2018-08-13T15:53:49.506Z,2.43
2018-08-13T15:56:17.001Z,2.47
2018-08-13T15:58:44.533Z,3.23
2018-08-13T16:01:12.019Z,2.70
2018-08-13T16:03:39.516Z,2.30
2018-08-13T16:06:08.044Z,2.47
2018-08-13T16:08:35.778Z,2.50
2018-08-13T16:11:03.284Z,2.30
2018-08-13T16:13:30.808Z,2.07
2018-08-13T16:15:58.284Z,2.20
2018-08-13T16:18:25.796Z,2.43
2018-08-13T16:20:53.301Z,2.27
2018-08-13T16:23:20.791Z,1.90
2018-08-13T16:25:48.324Z,2.33
2018-08-13T16:28:16.918Z,2.33
2018-08-13T16:30:44.409Z,2.00
2018-08-13T16:33:11.907Z,2.60
2018-08-13T16:35:39.406Z,2.17
2018-08-13T16:38:06.945Z,2.60
2018-08-13T16:40:34.518Z,2.47
2018-08-13T16:43:02.014Z,2.40
2018-08-13T16:45:29.604Z,2.60
2018-08-13T16:47:57.083Z,2.30
2018-08-13T16:50:24.587Z,2.00
2018-08-13T16:52:52.076Z,2.13
2018-08-13T16:55:19.589Z,2.20
2018-08-13T16:57:47.086Z,2.70
2018-08-13T17:00:14.589Z,3.00
2018-08-13T17:02:42.106Z,2.40
2018-08-13T17:05:10.278Z,2.40
2018-08-13T17:07:37.757Z,2.30
2018-08-13T17:10:05.522Z,2.33
2018-08-13T17:12:33.012Z,2.70
2018-08-13T17:15:00.547Z,2.40
2018-08-13T17:17:28.039Z,3.97
2018-08-13T17:19:55.799Z,3.23
2018-08-13T17:22:24.491Z,2.57
2018-08-13T17:24:52.163Z,3.80
2018-08-13T17:27:19.654Z,2.77
2018-08-13T17:29:47.163Z,2.50
2018-08-13T17:32:14.650Z,3.07
2018-08-13T17:34:42.183Z,2.60
2018-08-13T17:37:09.849Z,3.10
2018-08-13T17:39:37.358Z,2.87
2018-08-13T17:42:05.012Z,2.97
2018-08-13T17:44:32.550Z,3.00
2018-08-13T17:47:00.069Z,2.53
2018-08-13T17:49:27.594Z,2.40
2018-08-13T17:51:55.087Z,2.97
2018-08-13T17:54:22.711Z,2.43
2018-08-13T17:56:51.093Z,2.90
2018-08-13T17:59:18.581Z,2.10
2018-08-13T18:01:46.180Z,2.90
2018-08-13T18:04:13.628Z,3.07
2018-08-13T18:06:41.144Z,2.63
2018-08-13T18:09:09.850Z,3.80
2018-08-13T18:11:37.486Z,4.33
2018-08-13T18:14:05.016Z,6.80
2018-08-13T18:16:32.559Z,2.83
2018-08-13T18:19:00.050Z,2.97
2018-08-13T18:21:27.588Z,3.03
2018-08-13T18:23:55.081Z,3.30
2018-08-13T18:26:22.640Z,10.37
2018-08-13T18:28:50.176Z,3.30
2018-08-13T18:31:18.454Z,2.70
2018-08-13T18:33:45.951Z,1.33
2018-08-13T18:36:13.457Z,1.30
2018-08-13T18:38:40.946Z,1.23
2018-08-13T18:41:08.657Z,1.37
2018-08-13T18:43:36.303Z,1.37
2018-08-13T18:46:03.806Z,1.30
2018-08-13T18:48:31.317Z,1.50
2018-08-13T18:50:59.073Z,1.40
2018-08-13T18:53:27.355Z,1.47
2018-08-13T18:55:55.054Z,1.40
2018-08-13T18:58:22.650Z,1.60
2018-08-13T19:00:50.179Z,1.40
2018-08-13T19:03:18.592Z,1.37
2018-08-13T19:05:46.181Z,1.50
2018-08-13T19:08:13.775Z,1.30
2018-08-13T19:10:41.297Z,1.47
2018-08-13T19:13:09.057Z,2.20
2018-08-13T19:15:37.010Z,1.80
2018-08-13T19:18:04.559Z,1.60
2018-08-13T19:20:32.064Z,1.60
2018-08-13T19:22:59.561Z,1.47
2018-08-13T19:25:27.850Z,1.80
2018-08-13T19:27:55.493Z,7.37
2018-08-13T19:30:23.021Z,1.53
2018-08-13T19:32:50.531Z,1.67
2018-08-13T19:35:18.011Z,1.67
2018-08-13T19:37:45.796Z,1.70
2018-08-13T19:40:13.825Z,1.50
2018-08-13T19:42:41.336Z,1.80
2018-08-13T19:45:08.855Z,1.80
2018-08-13T19:47:36.477Z,1.90
2018-08-13T19:50:04.037Z,1.80
2018-08-13T19:52:31.682Z,1.90
2018-08-13T19:54:59.344Z,2.05
2018-08-13T19:57:27.024Z,2.20
2018-08-13T19:59:54.550Z,1.63
2018-08-13T20:02:22.055Z,1.60
2018-08-13T20:04:49.542Z,1.60
2018-08-13T20:07:17.056Z,1.97
2018-08-13T20:09:44.559Z,1.75
2018-08-13T20:12:12.087Z,1.50
2018-08-13T20:14:39.579Z,1.90
2018-08-13T20:17:07.107Z,1.80
2018-08-13T20:19:34.635Z,1.50
2018-08-13T20:22:02.221Z,1.70
2018-08-13T20:24:29.718Z,1.73
2018-08-13T20:26:57.251Z,2.03
2018-08-13T20:29:24.868Z,1.50
2018-08-13T20:31:52.482Z,2.10
2018-08-13T20:34:19.998Z,2.13
2018-08-13T20:36:47.566Z,1.97
2018-08-13T20:39:15.858Z,1.93
2018-08-13T20:41:43.365Z,1.80
2018-08-13T20:44:11.060Z,1.70
2018-08-13T20:46:39.333Z,1.57
2018-08-13T20:49:07.590Z,1.70
2018-08-13T20:51:35.117Z,1.67
2018-08-13T20:54:02.608Z,1.87
2018-08-13T20:56:30.179Z,2.30
2018-08-13T20:58:57.682Z,1.97
2018-08-13T21:01:25.459Z,2.30
2018-08-13T21:03:53.273Z,1.93
2018-08-13T21:06:20.765Z,2.00
2018-08-13T21:08:48.310Z,2.10
2018-08-13T21:11:15.975Z,2.03
2018-08-13T21:13:43.502Z,2.00
2018-08-13T21:16:11.231Z,2.30
2018-08-13T21:18:38.737Z,2.30
2018-08-13T21:21:06.450Z,1.70
2018-08-13T21:23:33.984Z,1.90
2018-08-13T21:26:01.562Z,1.63
2018-08-13T21:28:29.066Z,1.80
2018-08-13T21:30:57.343Z,1.70
2018-08-13T21:33:25.107Z,1.60
2018-08-13T21:35:52.650Z,1.87
2018-08-13T21:38:21.595Z,1.73
2018-08-13T21:40:49.942Z,2.10
2018-08-13T21:43:17.463Z,2.03
2018-08-13T21:45:45.952Z,1.53
2018-08-13T21:48:15.263Z,1.57
2018-08-13T21:50:42.752Z,1.77
2018-08-13T21:53:10.268Z,1.70
2018-08-13T21:55:37.798Z,1.87
2018-08-13T21:58:05.466Z,1.87
2018-08-13T22:00:32.949Z,1.90
2018-08-13T22:03:00.442Z,2.33
2018-08-13T22:05:28.918Z,1.70
2018-08-13T22:07:57.052Z,2.27
2018-08-13T22:10:24.587Z,2.27
2018-08-13T22:12:52.098Z,1.90
2018-08-13T22:15:19.592Z,1.87
2018-08-13T22:17:47.915Z,2.07
2018-08-13T22:20:15.929Z,1.80
2018-08-13T22:22:43.443Z,1.77
2018-08-13T22:25:11.032Z,1.80
2018-08-13T22:27:38.557Z,1.60
2018-08-13T22:30:06.057Z,1.80
2018-08-13T22:32:33.557Z,2.30
2018-08-13T22:35:01.064Z,2.00
2018-08-13T22:37:28.551Z,2.03
2018-08-13T22:39:56.067Z,1.90
2018-08-13T22:42:23.639Z,1.70
2018-08-13T22:44:51.167Z,2.50
2018-08-13T22:47:21.529Z,2.27
2018-08-13T22:49:49.053Z,2.10
2018-08-13T22:52:16.696Z,2.00
2018-08-13T22:54:44.204Z,2.20
2018-08-13T22:57:11.702Z,2.17
2018-08-13T22:59:39.224Z,1.83
2018-08-13T23:02:06.880Z,1.97
2018-08-13T23:04:34.495Z,2.00
2018-08-13T23:07:01.973Z,2.00
2018-08-13T23:09:29.506Z,2.30
2018-08-13T23:11:57.005Z,3.00
2018-08-13T23:14:24.517Z,2.40
2018-08-13T23:16:52.002Z,1.90
2018-08-13T23:19:19.520Z,2.83
2018-08-13T23:21:47.774Z,2.33
2018-08-13T23:24:15.536Z,2.53
2018-08-13T23:26:43.023Z,2.10
2018-08-13T23:29:10.525Z,2.57
2018-08-13T23:31:39.705Z,2.30
2018-08-13T23:34:07.985Z,2.17
2018-08-13T23:36:35.570Z,2.30
2018-08-13T23:39:03.099Z,2.10
2018-08-13T23:41:31.079Z,2.07
2018-08-13T23:43:58.677Z,2.30
2018-08-13T23:46:26.296Z,3.30
2018-08-13T23:48:53.818Z,1.93
2018-08-13T23:51:21.356Z,1.73
2018-08-13T23:53:48.855Z,2.33
2018-08-13T23:56:16.646Z,1.90
2018-08-13T23:58:44.167Z,2.20
